Time;durP1;ratioP1;P1;durP2;ratioP2;P2;SDS_P1;SDS_P2;PMS_P1;PMS_P2;Temp;Humidity;BMP_temperature;BMP_pressure;BME280_temperature;BME280_humidity;BME280_pressure;Samples;Min_cycle;Max_cycle;Signal;HPM_P1;HPM_P2
2023/11/25 00:00:47;;;;;;;3.10;1.27;;;4.30;99.90;;;;;;5032014;28;20878;-68
2023/11/25 00:03:14;;;;;;;4.30;1.33;;;4.30;99.90;;;;;;5030485;28;20433;-68
2023/11/25 00:05:39;;;;;;;3.47;1.23;;;4.20;99.90;;;;;;5031222;28;20691;-67
2023/11/25 00:08:05;;;;;;;2.10;1.13;;;4.20;99.90;;;;;;5031506;28;20433;-68
2023/11/25 00:10:31;;;;;;;3.30;1.50;;;4.30;99.90;;;;;;5031589;28;20178;-68
2023/11/25 00:12:58;;;;;;;1.60;1.43;;;4.30;99.90;;;;;;5030870;28;20762;-68
2023/11/25 00:15:24;;;;;;;2.73;1.37;;;4.30;99.90;;;;;;5030863;28;20600;-68
2023/11/25 00:17:54;;;;;;;8.23;2.43;;;4.30;99.90;;;;;;5031603;28;20483;-68
2023/11/25 00:20:20;;;;;;;5.53;2.30;;;4.30;99.90;;;;;;5031185;28;20935;-67
2023/11/25 00:22:46;;;;;;;2.80;1.37;;;4.30;99.90;;;;;;5030533;28;20468;-68
2023/11/25 00:25:12;;;;;;;5.73;1.40;;;4.20;99.90;;;;;;5030961;28;20547;-68
2023/11/25 00:27:38;;;;;;;4.63;1.63;;;4.20;99.90;;;;;;5035873;28;20568;-67
2023/11/25 00:30:06;;;;;;;6.27;1.20;;;4.30;99.90;;;;;;5045340;28;20439;-67
2023/11/25 00:32:36;;;;;;;3.60;1.33;;;4.30;99.90;;;;;;5030232;28;20851;-67
2023/11/25 00:35:03;;;;;;;2.17;1.40;;;4.30;99.90;;;;;;5031614;28;20429;-67
2023/11/25 00:37:29;;;;;;;4.00;1.40;;;4.40;99.90;;;;;;5031170;28;20518;-67
2023/11/25 00:39:54;;;;;;;5.20;1.70;;;4.40;99.90;;;;;;5031647;28;20445;-67
2023/11/25 00:42:21;;;;;;;3.57;1.33;;;4.40;99.90;;;;;;5031108;28;20193;-67
2023/11/25 00:44:46;;;;;;;2.63;1.60;;;4.40;99.90;;;;;;5030551;28;20183;-67
2023/11/25 00:47:13;;;;;;;1.73;1.17;;;4.50;99.90;;;;;;5031128;28;20439;-67
2023/11/25 00:49:41;;;;;;;3.60;1.60;;;4.40;99.90;;;;;;5030550;28;20211;-67
2023/11/25 00:52:07;;;;;;;3.30;1.60;;;4.40;99.90;;;;;;5030463;28;20473;-67
2023/11/25 00:54:33;;;;;;;3.93;1.43;;;4.40;99.90;;;;;;5030143;28;20483;-67
2023/11/25 00:57:01;;;;;;;5.63;1.60;;;4.40;99.90;;;;;;5030685;28;20471;-67
2023/11/25 00:59:27;;;;;;;6.07;1.80;;;4.40;99.90;;;;;;5031783;28;20629;-67
2023/11/25 01:01:53;;;;;;;5.63;2.17;;;4.40;99.90;;;;;;5030080;28;20436;-67
2023/11/25 01:04:18;;;;;;;4.37;1.70;;;4.40;99.90;;;;;;5029850;28;20439;-67
2023/11/25 01:06:47;;;;;;;3.10;1.93;;;4.40;99.90;;;;;;5030959;28;20444;-67
2023/11/25 01:09:17;;;;;;;2.30;1.40;;;4.40;99.90;;;;;;5030801;28;20190;-67
2023/11/25 01:11:43;;;;;;;1.97;1.37;;;4.50;99.90;;;;;;5029703;28;20519;-67
2023/11/25 01:14:09;;;;;;;3.57;1.50;;;4.50;99.90;;;;;;5029668;28;20425;-67
2023/11/25 01:16:35;;;;;;;2.50;1.30;;;4.50;99.90;;;;;;5030742;28;20193;-68
2023/11/25 01:19:01;;;;;;;3.70;1.83;;;4.60;99.90;;;;;;5031249;28;20188;-67
2023/11/25 01:21:27;;;;;;;4.90;1.40;;;4.60;99.90;;;;;;5029960;28;20955;-67
2023/11/25 01:23:53;;;;;;;4.10;1.63;;;4.60;99.90;;;;;;5030296;28;20429;-67
2023/11/25 01:26:18;;;;;;;1.60;1.03;;;4.60;99.90;;;;;;5030227;28;20186;-67
2023/11/25 01:28:44;;;;;;;2.60;1.33;;;4.60;99.90;;;;;;5029831;28;20193;-67
2023/11/25 01:31:14;;;;;;;2.30;1.00;;;4.60;99.90;;;;;;5029446;28;20243;-67
2023/11/25 01:33:43;;;;;;;3.57;1.37;;;4.50;99.90;;;;;;5029473;28;20222;-67
2023/11/25 01:36:09;;;;;;;3.10;1.07;;;4.50;99.90;;;;;;5030196;28;20435;-68
2023/11/25 01:38:38;;;;;;;3.00;1.30;;;4.40;99.90;;;;;;5030729;28;20504;-67
2023/11/25 01:41:06;;;;;;;3.40;1.50;;;4.50;99.90;;;;;;5029514;28;20540;-67
2023/11/25 01:43:32;;;;;;;2.20;1.37;;;4.40;99.90;;;;;;5029726;28;20789;-67
2023/11/25 01:45:59;;;;;;;4.30;1.40;;;4.40;99.90;;;;;;5029838;28;20526;-67
2023/11/25 01:48:28;;;;;;;3.97;1.20;;;4.40;99.90;;;;;;5029604;28;20769;-67
2023/11/25 01:50:55;;;;;;;6.10;1.53;;;4.40;99.90;;;;;;5030323;28;20440;-67
2023/11/25 01:53:21;;;;;;;3.67;1.10;;;4.30;99.90;;;;;;5028840;28;20443;-68
2023/11/25 01:55:51;;;;;;;2.70;1.10;;;4.30;99.90;;;;;;5030030;28;20950;-67
2023/11/25 01:58:19;;;;;;;6.30;1.70;;;4.40;99.90;;;;;;5030251;28;20477;-67
2023/11/25 02:00:46;;;;;;;7.67;1.90;;;4.40;99.90;;;;;;5030465;28;21217;-67
2023/11/25 02:03:13;;;;;;;5.67;2.33;;;4.30;99.90;;;;;;5030192;28;20523;-67
2023/11/25 02:05:39;;;;;;;4.90;1.90;;;4.40;99.90;;;;;;5029072;28;20789;-68
2023/11/25 02:08:09;;;;;;;6.20;2.47;;;4.30;99.90;;;;;;5030097;28;20768;-67
2023/11/25 02:10:35;;;;;;;8.90;2.60;;;4.30;99.90;;;;;;5029003;28;20437;-67
2023/11/25 02:13:08;;;;;;;9.67;3.20;;;4.30;99.90;;;;;;5028106;28;20531;-67
2023/11/25 02:15:38;;;;;;;7.90;3.10;;;4.30;99.90;;;;;;5029013;28;20430;-67
2023/11/25 02:18:04;;;;;;;3.10;2.23;;;4.20;99.90;;;;;;5030027;28;20469;-67
2023/11/25 02:20:37;;;;;;;6.37;2.90;;;4.10;99.90;;;;;;5028706;28;20796;-67
2023/11/25 02:23:04;;;;;;;6.40;4.13;;;4.10;99.90;;;;;;5030371;28;20189;-67
2023/11/25 02:25:31;;;;;;;6.50;3.20;;;4.00;99.90;;;;;;5028946;28;21001;-67
2023/11/25 02:27:56;;;;;;;6.67;3.00;;;4.20;99.90;;;;;;5029166;28;20461;-67
2023/11/25 02:30:26;;;;;;;10.20;2.97;;;4.20;99.90;;;;;;5029764;28;21036;-68
2023/11/25 02:32:53;;;;;;;5.57;2.67;;;4.10;99.90;;;;;;5028597;28;20194;-67
2023/11/25 02:35:20;;;;;;;9.10;3.50;;;4.00;99.90;;;;;;5029565;28;20447;-67
2023/11/25 02:37:46;;;;;;;9.20;3.57;;;4.10;99.90;;;;;;5029352;28;20473;-67
2023/11/25 02:40:18;;;;;;;7.43;3.20;;;4.00;99.90;;;;;;5029089;28;20446;-67
2023/11/25 02:42:47;;;;;;;5.80;2.73;;;4.10;99.90;;;;;;5029607;28;20204;-67
2023/11/25 02:45:22;;;;;;;8.50;2.87;;;4.00;99.90;;;;;;5029095;28;20420;-67
2023/11/25 02:47:51;;;;;;;5.10;2.50;;;3.90;99.90;;;;;;5029767;28;20483;-67
2023/11/25 02:50:18;;;;;;;9.80;2.77;;;3.90;99.90;;;;;;5028759;28;20723;-67
2023/11/25 02:52:44;;;;;;;7.90;2.93;;;4.00;99.90;;;;;;5028919;28;20443;-67
2023/11/25 02:55:11;;;;;;;4.93;2.60;;;4.00;99.90;;;;;;5043581;28;20436;-67
2023/11/25 02:57:43;;;;;;;8.53;2.90;;;4.00;99.90;;;;;;5028900;28;20461;-67
2023/11/25 03:00:27;;;;;;;4.67;1.97;;;3.90;99.90;;;;;;5029424;28;20943;-67
2023/11/25 03:03:00;;;;;;;8.60;3.30;;;4.00;99.90;;;;;;5028447;28;20447;-67
2023/11/25 03:05:27;;;;;;;6.70;2.67;;;4.00;99.90;;;;;;5027836;28;20436;-67
2023/11/25 03:07:56;;;;;;;4.23;2.60;;;3.90;99.90;;;;;;5029072;28;20424;-67
2023/11/25 03:10:23;;;;;;;5.10;2.80;;;3.90;99.90;;;;;;5028930;28;20433;-67
2023/11/25 03:12:49;;;;;;;5.87;2.70;;;4.00;99.90;;;;;;5027704;28;20472;-67
2023/11/25 03:15:14;;;;;;;7.70;2.70;;;3.90;99.90;;;;;;5027869;28;20947;-67
2023/11/25 03:17:40;;;;;;;5.80;2.97;;;3.80;99.90;;;;;;5028527;28;20221;-67
2023/11/25 03:20:09;;;;;;;5.47;2.90;;;3.80;99.90;;;;;;5029336;28;20679;-67
2023/11/25 03:22:35;;;;;;;9.03;2.90;;;3.80;99.90;;;;;;5028161;28;20216;-67
2023/11/25 03:25:01;;;;;;;7.37;2.67;;;3.90;99.90;;;;;;5028019;28;20554;-67
2023/11/25 03:27:35;;;;;;;8.67;3.63;;;3.90;99.90;;;;;;5028071;28;20196;-67
2023/11/25 03:30:07;;;;;;;6.03;3.50;;;3.80;99.90;;;;;;5028625;28;20437;-67
2023/11/25 03:32:34;;;;;;;6.43;3.23;;;3.80;99.90;;;;;;5028186;28;20432;-67
2023/11/25 03:35:00;;;;;;;12.00;2.83;;;3.80;99.90;;;;;;5030189;28;20470;-67
2023/11/25 03:37:26;;;;;;;7.80;2.93;;;3.80;99.90;;;;;;5031837;28;20852;-67
2023/11/25 03:39:52;;;;;;;9.03;3.40;;;3.80;99.90;;;;;;5032194;28;20444;-67
2023/11/25 03:42:20;;;;;;;14.10;4.50;;;3.80;99.90;;;;;;5031556;28;20433;-67
2023/11/25 03:44:48;;;;;;;8.17;3.30;;;3.90;99.90;;;;;;5031128;28;20654;-67
2023/11/25 03:47:14;;;;;;;9.60;4.37;;;4.00;99.90;;;;;;5032926;28;20519;-67
2023/11/25 03:49:40;;;;;;;7.87;3.17;;;3.90;99.90;;;;;;5031481;28;20786;-67
2023/11/25 03:52:06;;;;;;;7.93;3.00;;;4.00;99.90;;;;;;5032403;28;20194;-67
2023/11/25 03:54:35;;;;;;;8.77;3.50;;;4.00;99.90;;;;;;5030992;28;20952;-67
2023/11/25 03:57:01;;;;;;;11.77;4.20;;;3.90;99.90;;;;;;5032460;28;20209;-67
2023/11/25 03:59:27;;;;;;;8.30;2.90;;;4.00;99.90;;;;;;5031990;28;20976;-67
2023/11/25 04:01:52;;;;;;;10.43;2.93;;;4.00;99.90;;;;;;5032202;28;20535;-67
2023/11/25 04:04:18;;;;;;;6.93;2.90;;;4.10;99.90;;;;;;5030571;28;20908;-67
2023/11/25 04:06:44;;;;;;;6.47;2.70;;;4.10;99.90;;;;;;5032380;28;20189;-67
2023/11/25 04:09:10;;;;;;;11.17;3.30;;;4.10;99.90;;;;;;5031730;28;20186;-67
2023/11/25 04:11:36;;;;;;;8.20;2.93;;;4.10;99.90;;;;;;5031681;28;20436;-67
2023/11/25 04:14:01;;;;;;;11.40;3.03;;;4.20;99.90;;;;;;5030722;28;20463;-67
2023/11/25 04:16:27;;;;;;;9.07;2.73;;;4.20;99.90;;;;;;5031352;28;20190;-67
2023/11/25 04:18:53;;;;;;;7.40;3.00;;;4.20;99.90;;;;;;5031482;28;20245;-67
2023/11/25 04:21:22;;;;;;;6.50;2.80;;;4.20;99.90;;;;;;5031308;28;20268;-67
2023/11/25 04:23:55;;;;;;;6.97;2.57;;;4.20;99.90;;;;;;5030533;28;20441;-67
2023/11/25 04:26:26;;;;;;;10.43;3.37;;;4.20;99.90;;;;;;5030826;28;20783;-67
2023/11/25 04:28:52;;;;;;;10.53;3.00;;;4.20;99.90;;;;;;5031823;28;20908;-67
2023/11/25 04:31:18;;;;;;;7.33;4.30;;;4.20;99.90;;;;;;5031176;28;20508;-67
2023/11/25 04:33:44;;;;;;;6.97;2.70;;;4.10;99.90;;;;;;5030787;28;20826;-67
2023/11/25 04:36:09;;;;;;;8.40;3.80;;;4.10;99.90;;;;;;5030920;28;20218;-66
2023/11/25 04:38:35;;;;;;;10.47;2.80;;;4.10;99.90;;;;;;5029904;28;20859;-67
2023/11/25 04:41:01;;;;;;;12.00;3.20;;;4.20;99.90;;;;;;5031164;28;20210;-67
2023/11/25 04:43:27;;;;;;;10.17;2.77;;;4.10;99.90;;;;;;5029522;28;20935;-67
2023/11/25 04:45:52;;;;;;;7.33;3.20;;;4.20;99.90;;;;;;5029157;28;20227;-67
2023/11/25 04:48:19;;;;;;;7.07;2.60;;;4.30;99.90;;;;;;5030541;28;20630;-67
2023/11/25 04:50:46;;;;;;;11.80;3.23;;;4.30;99.90;;;;;;5030916;28;20272;-67
2023/11/25 04:53:12;;;;;;;12.00;3.03;;;4.30;99.90;;;;;;5030979;28;20760;-67
2023/11/25 04:55:38;;;;;;;9.67;3.13;;;4.30;99.90;;;;;;5030532;28;20429;-67
2023/11/25 04:58:04;;;;;;;16.10;3.93;;;4.30;99.90;;;;;;5031623;28;20985;-68
2023/11/25 05:00:29;;;;;;;8.70;4.27;;;4.20;99.90;;;;;;5029775;28;20489;-67
2023/11/25 05:02:55;;;;;;;6.40;3.57;;;4.10;99.90;;;;;;5030311;28;20277;-67
2023/11/25 05:05:23;;;;;;;8.17;3.40;;;4.20;99.90;;;;;;5029436;28;20227;-67
2023/11/25 05:07:49;;;;;;;10.77;3.23;;;4.20;99.90;;;;;;5030892;28;21394;-67
2023/11/25 05:10:15;;;;;;;9.33;3.63;;;4.10;99.90;;;;;;5031136;28;20444;-67
2023/11/25 05:12:44;;;;;;;7.67;3.03;;;4.20;99.90;;;;;;5030498;28;20939;-67
2023/11/25 05:15:11;;;;;;;11.17;4.00;;;4.10;99.90;;;;;;5030373;28;20469;-67
2023/11/25 05:17:38;;;;;;;9.23;3.20;;;4.20;99.90;;;;;;5029977;28;20469;-67
2023/11/25 05:20:05;;;;;;;11.20;3.33;;;4.40;99.90;;;;;;5031282;28;20428;-68
2023/11/25 05:22:31;;;;;;;13.20;3.17;;;4.40;99.90;;;;;;5029993;28;20420;-68
2023/11/25 05:24:56;;;;;;;8.87;3.47;;;4.40;99.90;;;;;;5030719;28;20417;-68
2023/11/25 05:27:22;;;;;;;9.10;2.70;;;4.30;99.90;;;;;;5029707;28;20209;-67
2023/11/25 05:29:49;;;;;;;8.20;2.87;;;4.40;99.90;;;;;;5030428;28;20685;-68
2023/11/25 05:32:15;;;;;;;6.53;2.90;;;4.50;99.90;;;;;;5030835;28;20918;-67
2023/11/25 05:34:41;;;;;;;6.37;2.97;;;4.40;99.90;;;;;;5029362;28;20489;-68
2023/11/25 05:37:10;;;;;;;10.13;3.30;;;4.40;99.90;;;;;;5029981;28;20468;-67
2023/11/25 05:39:36;;;;;;;9.17;2.83;;;4.40;99.90;;;;;;5029595;28;20652;-68
2023/11/25 05:42:03;;;;;;;11.57;3.57;;;4.40;99.90;;;;;;5030790;28;20537;-68
2023/11/25 05:44:29;;;;;;;6.37;2.60;;;4.40;99.90;;;;;;5029283;28;20885;-68
2023/11/25 05:46:56;;;;;;;8.57;3.27;;;4.40;99.90;;;;;;5030560;28;20432;-67
2023/11/25 05:49:22;;;;;;;8.30;2.93;;;4.50;99.90;;;;;;5029913;28;20850;-67
2023/11/25 05:51:50;;;;;;;9.60;2.37;;;4.50;99.90;;;;;;5029698;28;20441;-67
2023/11/25 05:54:16;;;;;;;8.50;2.47;;;4.50;99.90;;;;;;5030067;28;21004;-67
2023/11/25 05:56:45;;;;;;;8.73;2.63;;;4.40;99.90;;;;;;5028818;28;20437;-68
2023/11/25 05:59:11;;;;;;;8.93;2.90;;;4.40;99.90;;;;;;5030429;28;20513;-67
2023/11/25 06:01:38;;;;;;;8.30;2.73;;;4.40;99.90;;;;;;5029888;28;20835;-67
2023/11/25 06:04:04;;;;;;;4.00;2.13;;;4.40;99.90;;;;;;5030157;28;20512;-67
2023/11/25 06:06:30;;;;;;;8.87;3.80;;;4.40;99.90;;;;;;5029180;28;20421;-68
2023/11/25 06:08:56;;;;;;;14.37;3.10;;;4.40;99.90;;;;;;5030172;28;21579;-67
2023/11/25 06:11:26;;;;;;;5.93;2.80;;;4.40;99.90;;;;;;5031417;28;20516;-67
2023/11/25 06:13:54;;;;;;;6.70;2.90;;;4.50;99.90;;;;;;5029457;28;20178;-67
2023/11/25 06:16:20;;;;;;;9.30;2.27;;;4.50;99.90;;;;;;5028779;28;20436;-68
2023/11/25 06:18:45;;;;;;;8.33;2.50;;;4.50;99.90;;;;;;5029583;28;20479;-68
2023/11/25 06:21:11;;;;;;;7.77;2.83;;;4.50;99.90;;;;;;5029599;28;20300;-67
2023/11/25 06:23:38;;;;;;;9.40;2.77;;;4.60;99.90;;;;;;5028623;28;20692;-67
2023/11/25 06:26:06;;;;;;;5.13;2.20;;;4.60;99.90;;;;;;5029291;28;20186;-68
2023/11/25 06:28:31;;;;;;;8.13;2.17;;;4.70;99.90;;;;;;5029333;28;20435;-67
2023/11/25 06:30:57;;;;;;;8.50;3.00;;;4.70;99.90;;;;;;5029526;28;20461;-67
2023/11/25 06:33:24;;;;;;;9.27;3.20;;;4.70;99.90;;;;;;5029040;28;20228;-67
2023/11/25 06:35:50;;;;;;;7.60;2.80;;;4.70;99.90;;;;;;5028608;28;20252;-67
2023/11/25 06:38:16;;;;;;;8.93;3.03;;;4.70;99.90;;;;;;5029781;28;20562;-67
2023/11/25 06:40:42;;;;;;;11.73;2.80;;;4.70;99.90;;;;;;5028688;28;20505;-67
2023/11/25 06:43:07;;;;;;;12.97;3.13;;;4.70;99.90;;;;;;5029100;28;20429;-66
2023/11/25 06:45:34;;;;;;;8.77;3.03;;;4.60;99.90;;;;;;5029053;28;20247;-67
2023/11/25 06:48:01;;;;;;;6.47;2.10;;;4.70;99.90;;;;;;5029768;28;20186;-67
2023/11/25 06:50:26;;;;;;;11.80;2.60;;;4.80;99.90;;;;;;5029345;28;20535;-66
2023/11/25 06:52:52;;;;;;;6.10;2.63;;;4.70;99.90;;;;;;5028748;28;20854;-67
2023/11/25 06:55:19;;;;;;;11.43;2.90;;;4.80;99.90;;;;;;5028658;28;20189;-66
2023/11/25 06:57:45;;;;;;;6.27;2.90;;;4.60;99.90;;;;;;5029491;28;20954;-66
2023/11/25 07:00:12;;;;;;;7.63;3.03;;;4.70;99.90;;;;;;5030973;28;20429;-66
2023/11/25 07:02:39;;;;;;;4.63;2.70;;;4.60;99.90;;;;;;5028627;28;20421;-67
2023/11/25 07:05:07;;;;;;;7.90;3.13;;;4.60;99.90;;;;;;5028700;28;20428;-66
2023/11/25 07:07:33;;;;;;;6.20;2.20;;;4.60;99.90;;;;;;5044135;28;20532;-67
2023/11/25 07:10:00;;;;;;;4.50;2.10;;;4.60;99.90;;;;;;5032075;28;20439;-66
2023/11/25 07:12:25;;;;;;;4.97;2.17;;;4.60;99.90;;;;;;5032594;28;20428;-66
2023/11/25 07:14:51;;;;;;;8.90;2.50;;;4.60;99.90;;;;;;5031808;28;20879;-67
2023/11/25 07:17:17;;;;;;;8.10;3.20;;;4.70;99.90;;;;;;5032828;28;20647;-66
2023/11/25 07:19:42;;;;;;;6.73;2.70;;;4.60;99.90;;;;;;5032349;28;20185;-66
2023/11/25 07:22:08;;;;;;;7.50;2.30;;;4.60;99.90;;;;;;5032637;28;20243;-66
2023/11/25 07:24:35;;;;;;;8.73;2.80;;;4.60;99.90;;;;;;5031911;28;20560;-67
2023/11/25 07:27:04;;;;;;;7.90;3.20;;;4.60;99.90;;;;;;5032744;28;20447;-66
2023/11/25 07:29:31;;;;;;;7.90;2.57;;;4.60;99.90;;;;;;5033076;28;20527;-67
2023/11/25 07:32:00;;;;;;;5.27;2.60;;;4.60;99.90;;;;;;5033373;28;20428;-66
2023/11/25 07:34:34;;;;;;;7.17;2.50;;;4.70;99.90;;;;;;5033712;28;20485;-66
2023/11/25 07:36:59;;;;;;;10.27;2.80;;;4.70;99.90;;;;;;5034555;28;20570;-66
2023/11/25 07:39:29;;;;;;;6.17;2.90;;;4.70;99.90;;;;;;5033789;28;20421;-66
2023/11/25 07:41:57;;;;;;;5.40;2.80;;;4.70;99.90;;;;;;5033598;28;20201;-66
2023/11/25 07:44:26;;;;;;;9.87;3.27;;;4.70;99.90;;;;;;5031027;28;20424;-66
2023/11/25 07:46:52;;;;;;;7.70;3.37;;;4.70;99.90;;;;;;5032802;28;21771;-66
2023/11/25 07:49:18;;;;;;;8.53;3.33;;;4.70;99.90;;;;;;5033388;28;20440;-66
2023/11/25 07:51:48;;;;;;;10.13;4.57;;;4.70;99.90;;;;;;5032407;28;20470;-67
2023/11/25 07:54:14;;;;;;;8.93;3.33;;;4.90;99.90;;;;;;5031831;28;20787;-66
2023/11/25 07:56:40;;;;;;;12.20;3.90;;;4.90;99.90;;;;;;5032709;28;20490;-66
2023/11/25 07:59:06;;;;;;;5.53;3.10;;;4.80;99.90;;;;;;5032324;28;20479;-67
2023/11/25 08:01:31;;;;;;;9.13;3.50;;;4.80;99.90;;;;;;5033150;28;20192;-67
2023/11/25 08:03:57;;;;;;;8.43;3.57;;;4.70;99.90;;;;;;5032609;28;20248;-66
2023/11/25 08:06:25;;;;;;;8.17;3.43;;;4.70;99.90;;;;;;5031680;28;20193;-67
2023/11/25 08:08:54;;;;;;;7.80;3.27;;;4.80;99.90;;;;;;5032387;28;20178;-66
2023/11/25 08:11:29;;;;;;;8.07;3.50;;;4.70;99.90;;;;;;5031925;28;20441;-67
2023/11/25 08:13:55;;;;;;;9.23;3.03;;;4.60;99.90;;;;;;5031685;28;20436;-67
2023/11/25 08:16:20;;;;;;;11.03;3.07;;;4.60;99.90;;;;;;5031009;28;20434;-67
2023/11/25 08:18:47;;;;;;;8.13;2.17;;;4.60;99.90;;;;;;5032175;28;20213;-67
2023/11/25 08:21:14;;;;;;;7.40;2.60;;;4.60;99.90;;;;;;5030884;28;20178;-67
2023/11/25 08:23:41;;;;;;;20.93;3.53;;;4.60;99.90;;;;;;5031183;28;20515;-68
2023/11/25 08:26:20;;;;;;;9.50;2.50;;;4.70;99.90;;;;;;5031631;28;21077;-67
2023/11/25 08:28:46;;;;;;;5.27;2.63;;;4.60;99.90;;;;;;5031121;28;20527;-67
2023/11/25 08:31:12;;;;;;;8.43;3.17;;;4.60;99.90;;;;;;5031776;28;20539;-67
2023/11/25 08:33:40;;;;;;;11.17;2.70;;;4.70;99.90;;;;;;5032012;28;20425;-67
2023/11/25 08:36:07;;;;;;;8.50;3.00;;;4.60;99.90;;;;;;5032284;28;20432;-68
2023/11/25 08:38:32;;;;;;;7.13;2.80;;;4.60;99.90;;;;;;5031653;28;20583;-67
2023/11/25 08:40:58;;;;;;;7.63;2.70;;;4.70;99.90;;;;;;5032672;28;20445;-67
2023/11/25 08:43:24;;;;;;;7.63;3.10;;;4.70;99.90;;;;;;5030827;28;20605;-67
2023/11/25 08:45:53;;;;;;;10.87;3.57;;;4.80;99.90;;;;;;5029029;28;20178;-67
2023/11/25 08:48:19;;;;;;;8.23;3.90;;;4.90;99.90;;;;;;5033925;28;20464;-67
2023/11/25 08:50:45;;;;;;;5.87;2.80;;;4.90;99.90;;;;;;5032154;28;20527;-67
2023/11/25 08:53:10;;;;;;;9.83;3.13;;;4.90;99.90;;;;;;5031416;28;20441;-68
2023/11/25 08:55:36;;;;;;;6.83;2.70;;;4.90;99.90;;;;;;5030994;28;20938;-67
2023/11/25 08:58:03;;;;;;;4.87;2.47;;;5.00;99.90;;;;;;5031509;28;20229;-67
2023/11/25 09:00:29;;;;;;;9.20;3.07;;;5.00;99.90;;;;;;5032844;28;20202;-67
2023/11/25 09:02:57;;;;;;;7.50;3.13;;;5.10;99.90;;;;;;5030860;28;20459;-67
2023/11/25 09:05:25;;;;;;;6.03;2.80;;;5.20;99.90;;;;;;5030364;28;20540;-67
2023/11/25 09:07:59;;;;;;;9.90;3.80;;;5.20;99.90;;;;;;5031932;28;20464;-67
2023/11/25 09:10:26;;;;;;;5.60;2.40;;;5.20;99.90;;;;;;5031273;28;20444;-67
2023/11/25 09:12:52;;;;;;;10.80;2.73;;;5.30;99.90;;;;;;5030896;28;20465;-67
2023/11/25 09:15:22;;;;;;;4.50;2.40;;;5.30;99.90;;;;;;5032165;28;20479;-67
2023/11/25 09:17:47;;;;;;;7.90;3.57;;;5.40;99.90;;;;;;5031887;28;20490;-67
2023/11/25 09:20:16;;;;;;;7.60;3.00;;;5.40;99.90;;;;;;5031137;28;21250;-67
2023/11/25 09:22:42;;;;;;;6.43;3.37;;;5.50;99.90;;;;;;5031107;28;20806;-68
2023/11/25 09:25:12;;;;;;;5.23;2.70;;;5.60;99.90;;;;;;5029579;28;20440;-69
2023/11/25 09:27:47;;;;;;;4.40;3.37;;;5.60;99.90;;;;;;5031143;28;20960;-67
2023/11/25 09:30:14;;;;;;;6.30;4.40;;;5.70;99.90;;;;;;5030880;28;20431;-67
2023/11/25 09:32:46;;;;;;;5.43;3.80;;;5.70;99.90;;;;;;5029717;28;20560;-67
2023/11/25 09:35:12;;;;;;;6.00;4.50;;;5.80;99.90;;;;;;5030718;28;20495;-67
2023/11/25 09:37:42;;;;;;;6.90;4.13;;;5.80;99.90;;;;;;5029679;28;20464;-67
2023/11/25 09:40:15;;;;;;;9.37;4.40;;;5.70;99.90;;;;;;5029461;28;21390;-67
2023/11/25 09:42:43;;;;;;;7.30;5.00;;;5.80;99.90;;;;;;5029138;28;20444;-67
2023/11/25 09:45:10;;;;;;;5.07;4.20;;;5.80;99.90;;;;;;5029447;28;21029;-67
2023/11/25 09:47:40;;;;;;;7.87;4.80;;;5.70;99.90;;;;;;5030062;28;20439;-66
2023/11/25 09:50:09;;;;;;;7.20;4.70;;;5.80;99.90;;;;;;5029544;28;20468;-66
2023/11/25 09:52:50;;;;;;;6.03;4.50;;;5.90;99.90;;;;;;5029213;28;20464;-67
2023/11/25 09:55:20;;;;;;;8.87;4.57;;;6.20;99.90;;;;;;5030693;28;20439;-66
2023/11/25 09:57:49;;;;;;;7.47;5.00;;;6.30;99.90;;;;;;5030300;28;21100;-67
2023/11/25 10:00:17;;;;;;;6.40;3.97;;;6.30;99.90;;;;;;5032536;28;20475;-67
2023/11/25 10:02:44;;;;;;;5.47;3.30;;;6.30;99.90;;;;;;5029802;28;20444;-67
2023/11/25 10:05:11;;;;;;;10.50;4.73;;;6.30;99.90;;;;;;5030279;28;20440;-67
2023/11/25 10:07:37;;;;;;;11.57;4.17;;;6.50;99.90;;;;;;5029257;28;20546;-67
2023/11/25 10:10:04;;;;;;;8.37;3.77;;;6.70;99.90;;;;;;5029483;28;20433;-67
2023/11/25 10:12:31;;;;;;;6.53;3.60;;;6.80;99.90;;;;;;5029121;28;21006;-68
2023/11/25 10:14:59;;;;;;;10.00;4.30;;;6.70;99.90;;;;;;5029317;28;21056;-66
2023/11/25 10:17:25;;;;;;;6.73;4.47;;;6.60;99.90;;;;;;5030817;28;20479;-69
2023/11/25 10:20:18;;;;;;;6.63;3.67;;;6.50;99.90;;;;;;5029655;28;20511;-68
2023/11/25 10:22:53;;;;;;;8.97;4.10;;;6.40;99.90;;;;;;5027719;28;20432;-68
2023/11/25 10:25:20;;;;;;;7.60;3.80;;;6.30;99.90;;;;;;5027404;28;20425;-67
2023/11/25 10:27:47;;;;;;;10.43;5.23;;;6.30;99.90;;;;;;5028050;28;20462;-66
2023/11/25 10:30:16;;;;;;;7.23;5.37;;;6.30;99.90;;;;;;5030436;28;20439;-67
2023/11/25 10:32:42;;;;;;;9.77;5.77;;;6.30;99.90;;;;;;5028428;28;20918;-67
2023/11/25 10:35:11;;;;;;;13.93;6.60;;;6.20;99.90;;;;;;5028918;28;20439;-68
2023/11/25 10:37:39;;;;;;;8.77;6.03;;;6.20;99.90;;;;;;5028223;28;20464;-67
2023/11/25 10:40:10;;;;;;;13.07;5.90;;;6.30;99.90;;;;;;5028116;28;20472;-66
2023/11/25 10:42:42;;;;;;;6.33;5.40;;;6.20;99.90;;;;;;5029587;28;20444;-67
2023/11/25 10:45:18;;;;;;;12.00;5.17;;;6.20;99.90;;;;;;5028700;28;20519;-67
2023/11/25 10:47:45;;;;;;;8.27;4.30;;;6.20;99.90;;;;;;5027804;28;20429;-67
2023/11/25 10:50:13;;;;;;;7.63;4.40;;;6.20;99.90;;;;;;5027551;28;20435;-67
2023/11/25 10:52:42;;;;;;;8.33;3.50;;;6.30;99.90;;;;;;5028641;28;20455;-67
2023/11/25 10:55:09;;;;;;;6.37;2.70;;;6.30;99.90;;;;;;5027617;28;20427;-66
2023/11/25 10:57:36;;;;;;;7.40;3.37;;;6.30;99.90;;;;;;5028577;28;20550;-66
2023/11/25 11:00:10;;;;;;;6.53;4.10;;;6.40;99.90;;;;;;5028235;28;20480;-66
2023/11/25 11:02:56;;;;;;;10.70;3.90;;;6.40;99.90;;;;;;5028745;28;20427;-66
2023/11/25 11:06:01;;;;;;;7.90;4.23;;;6.40;99.90;;;;;;5027713;28;20435;-66
2023/11/25 11:08:38;;;;;;;7.57;3.50;;;6.40;99.90;;;;;;5027377;28;20433;-67
2023/11/25 11:11:21;;;;;;;4.90;3.47;;;6.50;99.90;;;;;;5027455;28;20435;-67
2023/11/25 11:14:19;;;;;;;8.10;3.00;;;6.60;99.90;;;;;;5028205;28;20451;-66
2023/11/25 11:17:24;;;;;;;8.60;3.90;;;6.60;99.90;;;;;;5026542;28;20436;-66
2023/11/25 11:19:53;;;;;;;7.43;2.50;;;6.80;99.90;;;;;;5026299;28;21118;-66
2023/11/25 11:22:21;;;;;;;4.70;2.80;;;6.80;99.90;;;;;;5028847;28;21025;-69
2023/11/25 11:24:58;;;;;;;11.80;4.70;;;6.90;99.90;;;;;;5030771;28;20440;-68
2023/11/25 11:27:55;;;;;;;7.67;3.90;;;6.90;99.90;;;;;;5033579;28;20797;-67
2023/11/25 11:30:58;;;;;;;6.10;3.83;;;7.00;99.90;;;;;;5033752;28;20551;-70
2023/11/25 11:33:25;;;;;;;7.00;2.80;;;7.00;99.90;;;;;;5027174;28;21895;-76
2023/11/25 11:35:50;;;;;;;7.07;2.27;;;6.90;99.90;;;;;;5028847;28;20437;-76
2023/11/25 11:38:28;;;;;;;7.27;3.43;;;6.90;99.90;;;;;;5027963;28;21017;-69
2023/11/25 11:41:17;;;;;;;11.93;3.57;;;6.90;99.90;;;;;;5030352;28;20205;-70
2023/11/25 11:44:03;;;;;;;5.17;2.77;;;7.00;99.90;;;;;;5022658;28;20649;-71
2023/11/25 11:46:31;;;;;;;6.27;3.50;;;6.90;99.90;;;;;;5027006;28;20432;-66
2023/11/25 11:48:58;;;;;;;7.67;2.40;;;6.90;99.90;;;;;;5026746;28;20524;-73
2023/11/25 11:51:24;;;;;;;4.30;2.70;;;6.90;99.90;;;;;;5026966;28;20440;-72
2023/11/25 11:54:29;;;;;;;3.80;1.90;;;6.80;99.90;;;;;;5026662;28;20455;-74
2023/11/25 11:57:05;;;;;;;4.23;1.77;;;6.90;99.90;;;;;;5009786;28;20465;-71
2023/11/25 11:59:57;;;;;;;5.03;2.90;;;7.00;99.90;;;;;;5011418;28;20441;-68
2023/11/25 12:02:23;;;;;;;7.50;3.27;;;7.00;99.90;;;;;;5026022;28;20440;-71
2023/11/25 12:04:48;;;;;;;6.13;2.30;;;7.00;99.90;;;;;;5030378;28;20812;-72
2023/11/25 12:07:15;;;;;;;5.10;2.60;;;6.90;99.90;;;;;;5031807;28;20194;-72
2023/11/25 12:09:41;;;;;;;3.80;2.10;;;7.00;99.90;;;;;;5036474;28;20193;-67
2023/11/25 12:12:06;;;;;;;2.40;1.60;;;7.10;99.90;;;;;;5031420;28;20421;-73
2023/11/25 12:14:35;;;;;;;4.50;1.33;;;7.10;99.90;;;;;;5030081;28;20307;-66
2023/11/25 12:17:01;;;;;;;3.13;1.77;;;7.10;99.90;;;;;;5030541;28;20186;-72
2023/11/25 12:19:28;;;;;;;4.77;1.90;;;7.10;99.90;;;;;;5030542;28;20421;-70
2023/11/25 12:21:53;;;;;;;3.90;1.90;;;7.10;99.90;;;;;;5030301;28;20437;-69
2023/11/25 12:24:19;;;;;;;4.87;1.50;;;7.00;99.90;;;;;;5030563;28;20933;-67
2023/11/25 12:26:50;;;;;;;4.10;1.77;;;7.00;99.90;;;;;;5032195;28;20189;-69
2023/11/25 12:29:16;;;;;;;6.10;1.80;;;7.00;99.90;;;;;;5031814;28;21090;-70
2023/11/25 12:31:43;;;;;;;8.83;2.07;;;7.00;99.90;;;;;;5030813;28;20449;-70
2023/11/25 12:34:09;;;;;;;3.63;1.57;;;7.00;99.90;;;;;;5030050;28;20437;-69
2023/11/25 12:36:35;;;;;;;4.77;1.90;;;7.00;99.90;;;;;;5020850;28;20437;-68
2023/11/25 12:39:03;;;;;;;8.07;1.53;;;6.90;99.90;;;;;;5030179;28;21146;-71
2023/11/25 12:41:29;;;;;;;2.10;1.60;;;6.90;99.90;;;;;;5029793;28;20448;-71
2023/11/25 12:44:11;;;;;;;4.80;1.80;;;6.90;99.90;;;;;;5030290;28;20432;-71
2023/11/25 12:46:41;;;;;;;6.20;1.83;;;6.90;99.90;;;;;;5030893;28;20222;-71
2023/11/25 12:49:21;;;;;;;5.80;1.40;;;6.90;99.90;;;;;;5030083;28;20440;-71
2023/11/25 12:51:47;;;;;;;2.00;1.50;;;6.90;99.90;;;;;;5030868;28;20472;-71
2023/11/25 12:54:14;;;;;;;2.50;1.47;;;6.90;99.90;;;;;;5029063;28;21234;-72
2023/11/25 12:56:42;;;;;;;3.50;1.57;;;6.90;99.90;;;;;;5031257;28;20498;-73
2023/11/25 12:59:08;;;;;;;3.07;1.33;;;6.80;99.90;;;;;;5029827;28;20502;-68
2023/11/25 13:01:33;;;;;;;4.50;1.70;;;6.80;99.90;;;;;;5029113;28;20515;-70